Time;durP1;ratioP1;P1;durP2;ratioP2;P2;SDS_P1;SDS_P2;PMS_P1;PMS_P2;Temp;Humidity;BMP_temperature;BMP_pressure;BME280_temperature;BME280_humidity;BME280_pressure;Samples;Min_cycle;Max_cycle;Signal;HPM_P1;HPM_P2
2023/03/15 00:01:40;;;;;;;9.95;2.60;;;1.20;99.90;;;;;;5067249;28;20494;-65
2023/03/15 00:04:06;;;;;;;22.55;2.97;;;1.30;99.90;;;;;;5069478;28;20058;-66
2023/03/15 00:06:33;;;;;;;7.45;1.70;;;1.30;99.90;;;;;;5066601;28;20028;-66
2023/03/15 00:09:02;;;;;;;20.02;2.50;;;1.30;99.90;;;;;;5069256;28;20493;-65
2023/03/15 00:11:29;;;;;;;14.15;2.60;;;1.40;99.90;;;;;;5068631;28;20174;-66
2023/03/15 00:13:56;;;;;;;5.30;1.88;;;1.50;99.90;;;;;;5067186;28;20029;-64
2023/03/15 00:16:25;;;;;;;12.65;2.70;;;1.50;99.90;;;;;;5065130;28;20057;-65
2023/03/15 00:18:52;;;;;;;8.90;2.75;;;1.50;99.90;;;;;;5066079;28;20119;-66
2023/03/15 00:21:18;;;;;;;8.77;2.15;;;1.40;99.90;;;;;;5066843;28;20025;-64
2023/03/15 00:23:44;;;;;;;5.80;2.00;;;1.50;99.90;;;;;;5062753;28;20028;-65
2023/03/15 00:26:10;;;;;;;15.20;4.20;;;1.50;99.90;;;;;;5065072;28;20035;-65
2023/03/15 00:28:35;;;;;;;10.35;1.88;;;1.60;99.90;;;;;;5067639;28;20612;-66
2023/03/15 00:31:08;;;;;;;7.50;2.28;;;1.60;99.90;;;;;;5068005;28;20501;-66
2023/03/15 00:33:34;;;;;;;14.35;3.13;;;1.70;99.90;;;;;;5064032;28;20028;-68
2023/03/15 00:36:04;;;;;;;3.13;1.38;;;1.70;99.90;;;;;;5066860;28;20091;-67
2023/03/15 00:38:29;;;;;;;8.18;2.30;;;1.80;99.90;;;;;;5066218;28;20063;-66
2023/03/15 00:40:55;;;;;;;8.75;1.95;;;1.80;99.90;;;;;;5062230;28;20485;-66
2023/03/15 00:43:21;;;;;;;18.67;2.17;;;1.90;99.90;;;;;;5062501;28;20386;-66
2023/03/15 00:45:46;;;;;;;11.98;1.95;;;1.90;99.90;;;;;;5056698;28;20040;-67
2023/03/15 00:48:12;;;;;;;6.15;2.03;;;1.90;99.90;;;;;;5065119;28;20120;-66
2023/03/15 00:50:37;;;;;;;13.77;2.25;;;1.90;99.90;;;;;;5068074;28;20401;-67
2023/03/15 00:53:03;;;;;;;12.82;2.30;;;2.00;99.90;;;;;;5069522;28;20041;-66
2023/03/15 00:55:28;;;;;;;12.60;2.97;;;2.00;99.90;;;;;;5064773;28;20037;-67
2023/03/15 00:57:55;;;;;;;12.55;2.20;;;2.00;99.90;;;;;;5065977;28;20456;-67
2023/03/15 01:00:23;;;;;;;25.00;3.30;;;2.00;99.90;;;;;;5066162;28;20035;-66
2023/03/15 01:02:53;;;;;;;12.95;2.58;;;2.10;99.90;;;;;;5067535;28;20505;-67
2023/03/15 01:05:19;;;;;;;13.35;1.95;;;2.10;99.90;;;;;;5066543;28;20029;-67
2023/03/15 01:07:45;;;;;;;6.32;1.95;;;2.10;99.90;;;;;;5068545;28;20078;-67
2023/03/15 01:10:13;;;;;;;11.15;2.35;;;2.10;99.90;;;;;;5063504;28;20409;-67
2023/03/15 01:12:39;;;;;;;13.13;2.70;;;2.10;99.90;;;;;;5064888;28;20576;-66
2023/03/15 01:15:07;;;;;;;10.95;2.45;;;2.10;99.90;;;;;;5067113;28;20068;-67
2023/03/15 01:17:33;;;;;;;7.47;2.42;;;2.10;99.90;;;;;;5063082;28;20693;-67
2023/03/15 01:19:59;;;;;;;12.07;2.22;;;2.10;99.90;;;;;;5066614;28;20016;-68
2023/03/15 01:22:25;;;;;;;8.07;2.20;;;2.20;99.90;;;;;;5062492;28;20028;-66
2023/03/15 01:24:51;;;;;;;4.78;2.17;;;2.20;99.90;;;;;;5061000;28;20040;-67
2023/03/15 01:27:16;;;;;;;9.52;2.80;;;2.10;99.90;;;;;;5067822;28;20066;-65
2023/03/15 01:29:42;;;;;;;15.18;3.92;;;2.10;99.90;;;;;;5064560;28;20040;-67
2023/03/15 01:32:07;;;;;;;10.88;2.35;;;2.10;99.90;;;;;;5061968;28;20603;-67
2023/03/15 01:34:34;;;;;;;9.95;2.45;;;2.10;99.90;;;;;;5054017;28;20074;-70
2023/03/15 01:37:01;;;;;;;14.93;3.22;;;2.10;99.90;;;;;;5061985;28;20090;-66
2023/03/15 01:39:27;;;;;;;14.13;3.60;;;2.10;99.90;;;;;;5067761;28;20082;-66
2023/03/15 01:41:53;;;;;;;9.38;3.03;;;2.00;99.90;;;;;;5064909;28;20028;-66
2023/03/15 01:44:19;;;;;;;11.57;2.80;;;2.00;99.90;;;;;;5065759;28;20051;-67
2023/03/15 01:46:45;;;;;;;13.40;3.53;;;2.00;99.90;;;;;;5061933;28;20033;-68
2023/03/15 01:49:12;;;;;;;10.18;3.45;;;2.00;99.90;;;;;;5081768;28;20283;-68
2023/03/15 01:51:56;;;;;;;14.40;2.75;;;1.90;99.90;;;;;;5062613;28;20119;-67
2023/03/15 01:54:28;;;;;;;12.52;3.22;;;1.90;99.90;;;;;;5063452;28;20032;-68
2023/03/15 01:57:07;;;;;;;8.75;3.13;;;1.90;99.90;;;;;;5068468;28;20533;-69
2023/03/15 01:59:37;;;;;;;20.02;3.65;;;1.90;99.90;;;;;;5069890;28;20555;-67
2023/03/15 02:02:05;;;;;;;10.63;4.03;;;1.90;99.90;;;;;;5046112;28;20144;-67
2023/03/15 02:04:56;;;;;;;17.73;3.58;;;1.90;99.90;;;;;;5085431;28;20614;-66
2023/03/15 02:07:25;;;;;;;11.10;4.22;;;1.90;99.90;;;;;;5086375;28;20175;-68
2023/03/15 02:10:06;;;;;;;14.63;4.35;;;1.80;99.90;;;;;;5086731;28;20454;-67
2023/03/15 02:12:37;;;;;;;10.68;4.05;;;1.80;99.90;;;;;;5089641;28;20560;-67
2023/03/15 02:15:04;;;;;;;8.80;3.72;;;1.70;99.90;;;;;;5067286;28;20043;-66
2023/03/15 02:17:43;;;;;;;18.77;4.75;;;1.60;99.90;;;;;;5068677;28;20125;-67
2023/03/15 02:20:33;;;;;;;18.58;4.55;;;1.70;99.90;;;;;;5069827;28;20115;-67
2023/03/15 02:23:12;;;;;;;8.95;4.40;;;1.50;99.90;;;;;;5067846;28;20028;-66
2023/03/15 02:26:02;;;;;;;9.43;4.15;;;1.50;99.90;;;;;;5066071;28;20037;-68
2023/03/15 02:28:29;;;;;;;19.05;4.65;;;1.40;99.90;;;;;;5068024;28;20029;-68
2023/03/15 02:30:54;;;;;;;11.20;4.55;;;1.40;99.90;;;;;;5066891;28;20036;-67
2023/03/15 02:33:25;;;;;;;9.68;4.60;;;1.40;99.90;;;;;;5066315;28;20078;-68
2023/03/15 02:35:51;;;;;;;11.45;4.07;;;1.40;99.90;;;;;;5063638;28;20028;-67
2023/03/15 02:38:17;;;;;;;10.32;4.53;;;1.40;99.90;;;;;;5065629;28;20028;-68
2023/03/15 02:40:44;;;;;;;8.20;3.78;;;1.40;99.90;;;;;;5068119;28;20547;-67
2023/03/15 02:43:16;;;;;;;7.47;3.95;;;1.40;99.90;;;;;;5065971;28;20060;-67
2023/03/15 02:45:43;;;;;;;5.70;3.72;;;1.40;99.90;;;;;;5069971;28;20039;-67
2023/03/15 02:48:10;;;;;;;7.20;3.35;;;1.40;99.90;;;;;;5069145;28;20028;-68
2023/03/15 02:50:36;;;;;;;5.00;3.05;;;1.40;99.90;;;;;;5068661;28;20024;-67
2023/03/15 02:53:04;;;;;;;5.97;2.53;;;1.40;99.90;;;;;;5062702;28;20086;-67
2023/03/15 02:55:33;;;;;;;6.22;2.47;;;1.40;99.90;;;;;;5067224;28;20059;-69
2023/03/15 02:57:59;;;;;;;5.70;2.65;;;1.40;99.90;;;;;;5071428;28;20478;-68
2023/03/15 03:00:25;;;;;;;4.65;2.97;;;1.40;99.90;;;;;;5067253;28;20497;-68
2023/03/15 03:02:51;;;;;;;5.05;2.72;;;1.30;99.90;;;;;;5068768;28;20066;-69
2023/03/15 03:05:17;;;;;;;5.35;2.17;;;1.30;99.90;;;;;;5064797;28;20032;-67
2023/03/15 03:07:43;;;;;;;4.40;2.33;;;1.30;99.90;;;;;;5068845;28;20035;-67
2023/03/15 03:10:11;;;;;;;3.47;2.28;;;1.30;99.90;;;;;;5065327;28;20032;-68
2023/03/15 03:12:36;;;;;;;4.10;2.28;;;1.30;99.90;;;;;;5070794;28;20071;-67
2023/03/15 03:15:03;;;;;;;2.95;1.92;;;1.30;99.90;;;;;;5069748;28;20086;-67
2023/03/15 03:17:29;;;;;;;3.13;1.80;;;1.30;99.90;;;;;;5070420;28;20062;-67
2023/03/15 03:19:55;;;;;;;3.33;2.15;;;1.30;99.90;;;;;;5072223;28;20111;-66
2023/03/15 03:22:23;;;;;;;2.67;1.80;;;1.30;99.90;;;;;;5069421;28;20024;-67
2023/03/15 03:24:50;;;;;;;3.53;1.98;;;1.30;99.90;;;;;;5068898;28;20031;-67
2023/03/15 03:27:17;;;;;;;2.10;1.40;;;1.30;99.90;;;;;;5069817;28;20599;-67
2023/03/15 03:29:43;;;;;;;2.47;1.25;;;1.20;99.90;;;;;;5069781;28;20038;-66
2023/03/15 03:32:09;;;;;;;2.42;1.20;;;1.20;99.90;;;;;;5069788;28;20035;-67
2023/03/15 03:34:35;;;;;;;2.70;1.40;;;1.20;99.90;;;;;;5070948;28;20029;-66
2023/03/15 03:37:01;;;;;;;2.45;1.58;;;1.20;99.90;;;;;;5069000;28;20472;-67
2023/03/15 03:39:26;;;;;;;3.00;1.90;;;1.20;99.90;;;;;;5070137;28;20032;-66
2023/03/15 03:41:52;;;;;;;3.92;2.35;;;1.20;99.90;;;;;;5063044;28;20067;-69
2023/03/15 03:44:18;;;;;;;5.45;2.95;;;1.20;99.90;;;;;;5062468;28;20478;-67
2023/03/15 03:46:43;;;;;;;6.07;3.22;;;1.20;99.90;;;;;;5067270;28;20094;-66
2023/03/15 03:49:09;;;;;;;5.47;3.60;;;1.20;99.90;;;;;;5069239;28;20678;-68
2023/03/15 03:51:36;;;;;;;6.55;3.78;;;1.20;99.90;;;;;;5069191;28;20370;-67
2023/03/15 03:54:02;;;;;;;6.70;3.58;;;1.20;99.90;;;;;;5064876;28;20544;-67
2023/03/15 03:56:29;;;;;;;5.05;3.35;;;1.20;99.90;;;;;;5070410;28;20066;-68
2023/03/15 03:58:54;;;;;;;5.03;3.40;;;1.20;99.90;;;;;;5068236;28;20029;-69
2023/03/15 04:01:21;;;;;;;5.00;3.17;;;1.20;99.90;;;;;;5071198;28;20107;-67
2023/03/15 04:03:50;;;;;;;6.63;4.05;;;1.20;99.90;;;;;;5068748;28;20048;-67
2023/03/15 04:06:16;;;;;;;8.48;4.60;;;1.20;99.90;;;;;;5067755;28;20032;-68
2023/03/15 04:08:41;;;;;;;9.88;5.28;;;1.20;99.90;;;;;;5071104;28;20041;-68
2023/03/15 04:11:07;;;;;;;11.95;5.45;;;1.20;99.90;;;;;;5068593;28;20027;-69
2023/03/15 04:13:32;;;;;;;9.77;5.13;;;1.20;99.90;;;;;;5064213;28;20044;-67
2023/03/15 04:16:00;;;;;;;6.45;3.85;;;1.20;99.90;;;;;;5069511;28;20039;-67
2023/03/15 04:18:26;;;;;;;7.93;4.63;;;1.20;99.90;;;;;;5067920;28;20074;-68
2023/03/15 04:20:53;;;;;;;6.55;3.80;;;1.10;99.90;;;;;;5067847;28;20101;-66
2023/03/15 04:23:20;;;;;;;7.18;4.38;;;1.20;99.90;;;;;;5067801;28;20500;-67
2023/03/15 04:25:51;;;;;;;7.55;4.30;;;1.10;99.90;;;;;;5071353;28;20044;-68
2023/03/15 04:28:18;;;;;;;10.13;4.70;;;1.20;99.90;;;;;;5069579;28;20037;-68
2023/03/15 04:30:46;;;;;;;7.30;4.20;;;1.10;99.90;;;;;;5068714;28;20040;-67
2023/03/15 04:33:12;;;;;;;8.50;4.72;;;1.10;99.90;;;;;;5068014;28;20441;-67
2023/03/15 04:35:38;;;;;;;8.20;4.70;;;1.20;99.90;;;;;;5065881;28;20060;-68
2023/03/15 04:38:04;;;;;;;9.68;5.60;;;1.20;99.90;;;;;;5068021;28;20077;-66
2023/03/15 04:40:33;;;;;;;13.57;5.05;;;1.20;99.90;;;;;;5067219;28;20028;-68
2023/03/15 04:43:00;;;;;;;10.25;5.80;;;1.20;99.90;;;;;;5064902;28;20032;-67
2023/03/15 04:45:27;;;;;;;10.18;5.60;;;1.20;99.90;;;;;;5064190;28;20056;-67
2023/03/15 04:47:54;;;;;;;8.02;4.88;;;1.10;99.90;;;;;;5066307;28;20025;-68
2023/03/15 04:50:21;;;;;;;11.75;6.57;;;1.20;99.90;;;;;;5070059;28;20032;-67
2023/03/15 04:52:47;;;;;;;10.73;6.30;;;1.20;99.90;;;;;;5062696;28;20025;-67
2023/03/15 04:55:13;;;;;;;19.75;6.43;;;1.20;99.90;;;;;;5066768;28;20642;-67
2023/03/15 04:57:39;;;;;;;13.32;6.20;;;1.20;99.90;;;;;;5069065;28;20036;-68
2023/03/15 05:00:06;;;;;;;12.68;5.97;;;1.20;99.90;;;;;;5067071;28;20040;-68
2023/03/15 05:02:33;;;;;;;22.40;9.88;;;1.20;99.90;;;;;;5067328;28;20028;-67
2023/03/15 05:04:59;;;;;;;15.23;8.85;;;1.20;99.90;;;;;;5068933;28;20394;-67
2023/03/15 05:07:25;;;;;;;23.80;11.40;;;1.20;99.90;;;;;;5068230;28;20024;-67
2023/03/15 05:09:50;;;;;;;16.05;8.52;;;1.20;99.90;;;;;;5066984;28;20157;-68
2023/03/15 05:12:16;;;;;;;19.23;9.55;;;1.30;99.90;;;;;;5069546;28;20032;-67
2023/03/15 05:14:41;;;;;;;17.00;7.68;;;1.20;99.90;;;;;;5064974;28;20416;-67
2023/03/15 05:17:07;;;;;;;13.95;7.15;;;1.30;99.90;;;;;;5061637;28;20108;-67
2023/03/15 05:19:33;;;;;;;13.90;6.88;;;1.30;99.90;;;;;;5067865;28;20032;-68
2023/03/15 05:22:00;;;;;;;16.02;7.45;;;1.30;99.90;;;;;;5063906;28;20115;-67
2023/03/15 05:24:26;;;;;;;19.48;7.72;;;1.30;99.90;;;;;;5061754;28;20729;-66
2023/03/15 05:26:53;;;;;;;14.60;5.88;;;1.30;99.90;;;;;;5068718;28;20104;-67
2023/03/15 05:29:20;;;;;;;16.15;7.95;;;1.30;99.90;;;;;;5063082;28;20054;-66
2023/03/15 05:31:46;;;;;;;9.40;4.88;;;1.30;99.90;;;;;;5063952;28;20039;-66
2023/03/15 05:34:12;;;;;;;13.18;5.45;;;1.30;99.90;;;;;;5069368;28;20070;-66
2023/03/15 05:36:38;;;;;;;18.80;7.38;;;1.30;99.90;;;;;;5071807;28;20469;-67
2023/03/15 05:39:03;;;;;;;243.27;79.38;;;1.30;99.90;;;;;;5070778;28;20032;-67
2023/03/15 05:41:29;;;;;;;224.82;78.88;;;1.30;99.90;;;;;;5073242;28;20534;-67
2023/03/15 05:43:55;;;;;;;106.50;41.45;;;1.30;99.90;;;;;;5070126;28;20086;-65
2023/03/15 05:46:21;;;;;;;73.22;27.38;;;1.40;99.90;;;;;;5071728;28;20036;-67
2023/03/15 05:48:47;;;;;;;44.67;16.40;;;1.40;99.90;;;;;;5071610;28;20039;-66
2023/03/15 05:51:14;;;;;;;113.32;36.08;;;1.40;99.90;;;;;;5070841;28;20544;-68
2023/03/15 05:53:39;;;;;;;280.40;83.40;;;1.30;99.90;;;;;;5068047;28;20040;-67
2023/03/15 05:56:05;;;;;;;272.65;83.97;;;1.30;99.90;;;;;;5070937;28;20083;-67
2023/03/15 05:58:31;;;;;;;204.27;69.88;;;1.30;99.90;;;;;;5070076;28;20070;-67
2023/03/15 06:00:57;;;;;;;101.35;40.63;;;1.40;99.90;;;;;;5069849;28;20561;-67
2023/03/15 06:03:22;;;;;;;91.88;37.50;;;1.40;99.90;;;;;;5069339;28;20030;-66
2023/03/15 06:05:48;;;;;;;97.30;40.75;;;1.40;99.90;;;;;;5070407;28;20056;-66
2023/03/15 06:08:14;;;;;;;27.50;14.35;;;1.40;99.90;;;;;;5070410;28;20052;-66
2023/03/15 06:10:39;;;;;;;17.23;8.88;;;1.40;99.90;;;;;;5063975;28;20036;-67
2023/03/15 06:13:05;;;;;;;25.13;10.68;;;1.40;99.90;;;;;;5070990;28;20186;-66
2023/03/15 06:15:31;;;;;;;22.63;9.35;;;1.40;99.90;;;;;;5071576;28;20441;-67
2023/03/15 06:17:57;;;;;;;23.15;9.63;;;1.40;99.90;;;;;;5071275;28;20051;-67
2023/03/15 06:20:23;;;;;;;19.48;8.80;;;1.40;99.90;;;;;;5073007;28;20711;-66
2023/03/15 06:22:48;;;;;;;18.52;8.48;;;1.40;99.90;;;;;;5069087;28;20025;-67
2023/03/15 06:25:14;;;;;;;14.85;7.65;;;1.50;99.90;;;;;;5070263;28;20393;-67
2023/03/15 06:27:39;;;;;;;13.05;6.10;;;1.50;99.90;;;;;;5073817;28;20036;-67
2023/03/15 06:30:06;;;;;;;11.45;5.88;;;1.50;99.90;;;;;;5067334;28;20036;-66
2023/03/15 06:32:31;;;;;;;9.45;6.18;;;1.50;99.90;;;;;;5067709;28;20141;-66
2023/03/15 06:34:57;;;;;;;12.35;6.22;;;1.50;99.90;;;;;;5068782;28;20494;-66
2023/03/15 06:37:23;;;;;;;13.10;7.18;;;1.60;99.90;;;;;;5069187;28;20025;-68
2023/03/15 06:39:49;;;;;;;16.67;6.03;;;1.60;99.90;;;;;;5068271;28;20571;-66
2023/03/15 06:42:15;;;;;;;12.48;6.80;;;1.70;99.90;;;;;;5071746;28;20097;-67
2023/03/15 06:44:42;;;;;;;12.52;6.00;;;1.80;99.90;;;;;;5069816;28;20058;-66
2023/03/15 06:47:09;;;;;;;11.32;6.32;;;1.90;99.90;;;;;;5073018;28;20025;-67
2023/03/15 06:49:35;;;;;;;9.15;5.93;;;1.90;99.90;;;;;;5066214;28;20524;-66
2023/03/15 06:52:02;;;;;;;10.40;6.40;;;1.90;99.90;;;;;;5066361;28;20032;-66
2023/03/15 06:54:28;;;;;;;10.27;6.28;;;2.00;99.90;;;;;;5066609;28;20024;-68
2023/03/15 06:56:53;;;;;;;9.95;6.07;;;2.10;99.90;;;;;;5072858;28;20055;-66
2023/03/15 06:59:19;;;;;;;13.55;7.53;;;2.00;99.90;;;;;;5071264;28;20035;-66
2023/03/15 07:01:44;;;;;;;16.75;6.93;;;2.10;99.90;;;;;;5070217;28;20048;-66
2023/03/15 07:04:10;;;;;;;11.82;6.80;;;2.30;99.90;;;;;;5047748;28;20040;-68
2023/03/15 07:06:36;;;;;;;9.02;5.47;;;2.30;99.90;;;;;;5069940;28;20068;-67
2023/03/15 07:09:02;;;;;;;10.15;6.30;;;2.60;99.90;;;;;;5061882;28;20075;-67
2023/03/15 07:11:34;;;;;;;10.50;5.93;;;2.80;99.90;;;;;;5031694;28;20414;-67
2023/03/15 07:13:59;;;;;;;10.50;5.47;;;2.90;99.90;;;;;;5024860;28;20096;-65
2023/03/15 07:16:25;;;;;;;8.80;5.35;;;2.90;99.90;;;;;;5030438;28;20100;-67
2023/03/15 07:18:54;;;;;;;7.45;4.75;;;2.90;99.90;;;;;;5028491;28;20056;-67
2023/03/15 07:21:20;;;;;;;8.02;5.18;;;2.80;99.90;;;;;;5043675;28;20021;-67
2023/03/15 07:23:45;;;;;;;9.77;6.50;;;2.80;99.90;;;;;;5029609;28;20056;-67
2023/03/15 07:26:11;;;;;;;10.32;5.45;;;2.70;99.90;;;;;;5029882;28;20044;-67
2023/03/15 07:28:36;;;;;;;8.18;5.75;;;2.70;99.90;;;;;;5030918;28;20037;-67
2023/03/15 07:31:04;;;;;;;8.52;5.55;;;2.80;99.90;;;;;;5028805;28;20037;-66
2023/03/15 07:33:32;;;;;;;9.48;5.57;;;3.00;99.90;;;;;;5029398;28;20037;-66
2023/03/15 07:35:58;;;;;;;7.75;4.85;;;3.10;99.90;;;;;;5026563;28;20033;-66
2023/03/15 07:38:29;;;;;;;7.07;4.82;;;3.30;99.90;;;;;;5030560;28;20037;-66
2023/03/15 07:40:56;;;;;;;6.20;4.65;;;3.40;99.90;;;;;;5030634;28;20033;-67
2023/03/15 07:43:22;;;;;;;10.43;5.63;;;3.40;99.90;;;;;;5029999;28;20085;-66
2023/03/15 07:45:48;;;;;;;6.85;4.97;;;3.40;99.90;;;;;;5028757;28;20025;-67
2023/03/15 07:48:14;;;;;;;7.47;5.30;;;3.40;99.90;;;;;;5029759;28;20029;-67
2023/03/15 07:50:40;;;;;;;7.97;5.28;;;3.40;99.90;;;;;;5025760;28;20121;-67
2023/03/15 07:53:06;;;;;;;7.55;4.57;;;3.40;99.90;;;;;;5028564;28;20064;-68
2023/03/15 07:55:32;;;;;;;9.30;5.43;;;3.40;99.90;;;;;;5028420;28;20095;-65
2023/03/15 07:57:58;;;;;;;7.25;5.10;;;3.50;99.90;;;;;;5028917;28;20036;-68
2023/03/15 08:00:24;;;;;;;9.40;5.40;;;3.50;99.90;;;;;;5029212;28;20479;-67
2023/03/15 08:02:50;;;;;;;11.25;5.70;;;3.50;99.90;;;;;;5025487;28;20040;-67
2023/03/15 08:05:17;;;;;;;10.25;6.15;;;3.50;99.90;;;;;;5013158;28;20046;-67
2023/03/15 08:07:45;;;;;;;9.70;5.60;;;3.60;99.90;;;;;;5030456;28;20079;-67
2023/03/15 08:10:11;;;;;;;8.57;5.53;;;3.50;99.90;;;;;;5027704;28;20522;-66
2023/03/15 08:12:38;;;;;;;8.93;6.03;;;3.40;99.90;;;;;;5027783;28;20041;-67
2023/03/15 08:15:04;;;;;;;10.25;6.55;;;3.40;99.90;;;;;;5030866;28;20088;-66
2023/03/15 08:17:30;;;;;;;10.50;6.70;;;3.30;99.90;;;;;;5027530;28;20487;-67
2023/03/15 08:19:55;;;;;;;10.65;6.72;;;3.30;99.90;;;;;;5026348;28;20130;-67
2023/03/15 08:22:22;;;;;;;13.32;7.53;;;3.30;99.90;;;;;;5027012;28;20045;-67
2023/03/15 08:24:49;;;;;;;16.80;8.82;;;3.50;99.90;;;;;;5024423;28;20067;-67
2023/03/15 08:27:15;;;;;;;22.88;11.20;;;3.70;99.90;;;;;;5022091;28;20033;-67
2023/03/15 08:29:40;;;;;;;18.27;9.90;;;3.80;99.90;;;;;;5021995;28;20029;-68
2023/03/15 08:32:07;;;;;;;14.98;9.05;;;3.80;99.90;;;;;;5021442;28;20502;-67
2023/03/15 08:34:33;;;;;;;14.95;9.32;;;3.90;99.90;;;;;;5023240;28;20214;-67
2023/03/15 08:37:00;;;;;;;17.25;9.77;;;4.00;99.90;;;;;;5022774;28;20115;-67
2023/03/15 08:39:25;;;;;;;21.08;12.15;;;4.00;99.90;;;;;;5020191;28;20487;-67
2023/03/15 08:41:51;;;;;;;25.17;11.05;;;4.00;99.90;;;;;;5022661;28;20036;-67
2023/03/15 08:44:17;;;;;;;22.75;10.70;;;4.10;99.90;;;;;;5019609;28;20491;-66
2023/03/15 08:46:42;;;;;;;16.80;9.27;;;4.20;99.90;;;;;;5026354;28;20014;-68
2023/03/15 08:49:08;;;;;;;12.27;8.32;;;4.20;99.90;;;;;;5022245;28;20025;-67
2023/03/15 08:51:34;;;;;;;15.00;6.82;;;4.30;99.90;;;;;;5033255;28;20021;-66
2023/03/15 08:54:02;;;;;;;13.23;8.90;;;4.30;99.90;;;;;;5021305;28;20017;-68
2023/03/15 08:56:28;;;;;;;13.50;7.43;;;4.40;99.90;;;;;;5024196;28;20032;-68
2023/03/15 08:58:54;;;;;;;12.05;7.53;;;4.40;99.90;;;;;;5027111;28;20483;-67
2023/03/15 09:01:20;;;;;;;11.88;7.70;;;4.70;99.90;;;;;;5024645;28;20032;-67
2023/03/15 09:03:45;;;;;;;12.43;7.82;;;5.00;99.90;;;;;;5025427;28;20029;-67
2023/03/15 09:06:11;;;;;;;10.27;7.30;;;5.20;99.90;;;;;;5017617;28;20059;-68
2023/03/15 09:08:37;;;;;;;11.23;7.18;;;5.60;99.90;;;;;;5026328;28;20017;-66
2023/03/15 09:11:03;;;;;;;12.05;7.28;;;6.20;99.90;;;;;;5041779;28;20025;-66
2023/03/15 09:13:29;;;;;;;10.85;7.20;;;6.40;99.90;;;;;;5028126;28;20041;-66
2023/03/15 09:15:56;;;;;;;10.02;7.03;;;6.50;99.90;;;;;;5030889;28;20423;-67
2023/03/15 09:18:22;;;;;;;7.63;6.10;;;7.00;99.90;;;;;;5027645;28;20064;-64
2023/03/15 09:20:48;;;;;;;9.23;7.05;;;7.10;99.90;;;;;;5031919;28;20032;-63
2023/03/15 09:23:13;;;;;;;8.52;6.85;;;7.10;99.90;;;;;;5027084;28;20025;-64
2023/03/15 09:25:39;;;;;;;10.23;6.78;;;7.10;99.90;;;;;;5017161;28;20032;-64
2023/03/15 09:28:07;;;;;;;10.50;6.47;;;7.30;99.90;;;;;;5036379;28;20390;-64
2023/03/15 09:30:34;;;;;;;11.50;6.72;;;7.70;99.90;;;;;;5024467;28;20033;-64
2023/03/15 09:32:59;;;;;;;8.90;6.78;;;8.00;99.90;;;;;;5036140;28;20026;-66
2023/03/15 09:35:25;;;;;;;11.70;6.75;;;8.60;99.90;;;;;;5032792;28;20045;-64
2023/03/15 09:37:51;;;;;;;9.50;5.40;;;8.70;99.90;;;;;;5029346;28;20033;-65
2023/03/15 09:40:29;;;;;;;8.20;6.30;;;9.00;99.90;;;;;;5028439;28;20433;-66
2023/03/15 09:43:10;;;;;;;10.40;5.28;;;9.30;99.90;;;;;;5040023;28;20021;-66
2023/03/15 09:45:51;;;;;;;7.63;4.47;;;9.10;99.90;;;;;;5037338;28;20022;-66
2023/03/15 09:48:31;;;;;;;9.55;4.65;;;9.70;99.90;;;;;;5027098;28;20026;-65
2023/03/15 09:51:05;;;;;;;8.68;4.13;;;10.00;99.90;;;;;;5044206;28;20029;-65
2023/03/15 09:53:57;;;;;;;8.20;4.55;;;10.00;99.90;;;;;;5026210;28;20096;-65
2023/03/15 09:56:28;;;;;;;8.30;4.35;;;9.70;99.90;;;;;;5034739;28;20028;-64
2023/03/15 09:58:58;;;;;;;11.98;5.70;;;9.00;99.90;;;;;;5035549;28;20631;-63
2023/03/15 10:01:34;;;;;;;6.97;4.57;;;8.60;99.90;;;;;;5032259;28;20136;-63
2023/03/15 10:04:23;;;;;;;7.38;4.38;;;8.20;99.90;;;;;;5028296;28;20029;-64
2023/03/15 10:06:54;;;;;;;11.13;5.80;;;8.50;99.90;;;;;;5040490;28;20136;-65
2023/03/15 10:09:28;;;;;;;6.70;4.20;;;9.10;99.90;;;;;;5047774;28;20025;-64
2023/03/15 10:12:13;;;;;;;8.68;4.68;;;9.20;99.90;;;;;;5048048;28;20101;-65
2023/03/15 10:14:54;;;;;;;6.07;4.30;;;9.20;99.90;;;;;;5049009;28;20039;-65
2023/03/15 10:17:29;;;;;;;8.20;4.45;;;9.30;99.90;;;;;;5047644;28;20112;-65
2023/03/15 10:20:02;;;;;;;7.18;4.00;;;9.30;99.90;;;;;;5047769;28;20022;-65
2023/03/15 10:22:44;;;;;;;6.82;3.67;;;9.20;99.90;;;;;;5051458;28;20040;-64
2023/03/15 10:25:25;;;;;;;5.90;4.30;;;9.10;99.90;;;;;;5043854;28;20562;-65
2023/03/15 10:28:03;;;;;;;10.35;4.88;;;9.20;99.90;;;;;;5045074;28;20550;-65
2023/03/15 10:30:32;;;;;;;5.53;3.92;;;9.40;99.90;;;;;;5040733;28;20045;-65
2023/03/15 10:33:10;;;;;;;5.53;3.55;;;9.30;99.90;;;;;;5041850;28;20025;-66
2023/03/15 10:35:36;;;;;;;27.02;12.88;;;9.60;99.90;;;;;;5044347;28;20040;-67
2023/03/15 10:38:02;;;;;;;8.23;4.53;;;9.90;99.90;;;;;;5042467;28;20055;-65
2023/03/15 10:40:48;;;;;;;7.80;4.05;;;9.80;99.90;;;;;;5044955;28;20495;-64
2023/03/15 10:43:54;;;;;;;4.80;2.78;;;9.90;99.30;;;;;;5042219;28;20605;-68
2023/03/15 10:46:24;;;;;;;6.28;3.45;;;9.70;99.90;;;;;;5048194;28;20021;-67
2023/03/15 10:49:07;;;;;;;9.23;3.10;;;9.00;99.90;;;;;;5040125;28;20108;-67
2023/03/15 10:51:47;;;;;;;8.38;3.92;;;8.60;99.90;;;;;;5041535;28;20025;-67
2023/03/15 10:54:26;;;;;;;8.23;4.07;;;8.60;99.90;;;;;;5042485;28;20024;-67
2023/03/15 10:57:04;;;;;;;8.23;4.18;;;8.20;99.90;;;;;;5043373;28;20086;-67
2023/03/15 10:59:32;;;;;;;8.35;3.90;;;8.30;99.90;;;;;;5038928;28;20135;-67
2023/03/15 11:02:10;;;;;;;8.82;3.63;;;8.40;99.90;;;;;;5046743;28;20033;-66
2023/03/15 11:04:41;;;;;;;5.10;2.88;;;8.70;99.90;;;;;;5049659;28;20033;-67
2023/03/15 11:07:07;;;;;;;4.13;2.63;;;8.50;99.90;;;;;;5038059;28;20083;-67
2023/03/15 11:09:41;;;;;;;6.43;2.78;;;8.70;99.90;;;;;;5046945;28;20078;-66
2023/03/15 11:12:09;;;;;;;4.25;2.88;;;8.70;99.90;;;;;;5047467;28;20028;-66
2023/03/15 11:14:44;;;;;;;8.25;3.45;;;8.20;99.90;;;;;;5048783;28;20520;-66
2023/03/15 11:17:22;;;;;;;5.20;3.50;;;8.00;99.90;;;;;;5047519;28;20044;-66
2023/03/15 11:19:55;;;;;;;7.32;3.47;;;7.70;99.90;;;;;;5048714;28;20029;-67
2023/03/15 11:22:22;;;;;;;7.88;3.42;;;7.60;99.90;;;;;;5044477;28;20021;-68
2023/03/15 11:24:48;;;;;;;12.02;3.63;;;7.50;99.90;;;;;;5044132;28;20017;-67
2023/03/15 11:27:18;;;;;;;8.05;3.25;;;7.20;99.90;;;;;;5052181;28;20079;-68
2023/03/15 11:29:50;;;;;;;8.50;3.53;;;6.90;99.90;;;;;;5044152;28;20060;-67
2023/03/15 11:32:23;;;;;;;4.30;2.55;;;6.70;99.90;;;;;;5049242;28;20021;-66
2023/03/15 11:35:11;;;;;;;8.52;2.88;;;6.40;99.90;;;;;;5046325;28;20021;-67
2023/03/15 11:37:57;;;;;;;6.28;2.60;;;6.50;99.90;;;;;;5044504;28;20037;-67
2023/03/15 11:40:33;;;;;;;23.75;9.10;;;6.40;99.90;;;;;;5045581;28;20037;-67
2023/03/15 11:43:23;;;;;;;15.57;4.70;;;6.50;99.90;;;;;;5043600;28;20025;-67
2023/03/15 11:46:07;;;;;;;13.68;5.88;;;6.70;99.90;;;;;;5040199;28;20025;-67
2023/03/15 11:48:45;;;;;;;24.23;9.68;;;6.90;99.90;;;;;;5048643;28;20025;-68
2023/03/15 11:51:12;;;;;;;9.43;3.53;;;7.20;99.90;;;;;;5042003;28;20079;-68
2023/03/15 11:53:50;;;;;;;5.15;2.60;;;7.40;99.90;;;;;;5039158;28;20117;-67
2023/03/15 11:56:26;;;;;;;14.57;8.05;;;7.50;99.90;;;;;;5038117;28;20041;-68
2023/03/15 11:59:04;;;;;;;15.32;7.00;;;7.60;99.90;;;;;;5040968;28;20021;-68
2023/03/15 12:01:29;;;;;;;8.13;4.43;;;7.60;99.90;;;;;;5043077;28;20021;-67
2023/03/15 12:04:23;;;;;;;8.35;3.40;;;7.70;99.90;;;;;;5040302;28;20036;-67
2023/03/15 12:06:52;;;;;;;17.92;3.42;;;7.80;99.90;;;;;;5020620;28;20384;-68
2023/03/15 12:09:33;;;;;;;5.72;3.15;;;8.10;99.90;;;;;;5028288;28;20048;-67
2023/03/15 12:12:04;;;;;;;4.25;2.40;;;8.20;99.90;;;;;;5018986;28;20422;-67
2023/03/15 12:14:35;;;;;;;5.85;2.25;;;8.40;99.90;;;;;;5021849;28;20033;-67
2023/03/15 12:17:23;;;;;;;8.70;2.30;;;8.70;99.90;;;;;;5026143;28;20034;-67
2023/03/15 12:20:08;;;;;;;5.32;2.40;;;8.60;99.90;;;;;;5024091;28;20479;-67
2023/03/15 12:22:35;;;;;;;6.18;2.20;;;8.50;99.90;;;;;;5026130;28;20033;-67
2023/03/15 12:25:45;;;;;;;6.10;2.30;;;8.40;99.90;;;;;;5020928;28;20562;-67
2023/03/15 12:28:24;;;;;;;7.25;2.13;;;8.50;99.90;;;;;;5026954;28;20029;-68
2023/03/15 12:30:55;;;;;;;6.65;2.33;;;8.50;99.90;;;;;;5028895;28;20029;-67
2023/03/15 12:33:22;;;;;;;7.22;2.33;;;8.70;99.90;;;;;;5029923;28;20044;-67
2023/03/15 12:35:48;;;;;;;6.88;3.58;;;8.60;99.90;;;;;;5023000;28;20025;-68
2023/03/15 12:38:22;;;;;;;6.85;2.47;;;8.60;99.90;;;;;;5027769;28;20029;-67
2023/03/15 12:40:52;;;;;;;;;;;8.60;99.90;;;;;;5030434;28;20018;-68
2023/03/15 12:43:41;;;;;;;6.95;3.95;;;8.40;99.90;;;;;;5027566;28;19905;-67
2023/03/15 12:46:42;;;;;;;8.40;3.58;;;8.40;99.90;;;;;;5023619;28;20021;-68
2023/03/15 12:49:13;;;;;;;7.40;2.22;;;8.60;99.90;;;;;;5029420;28;20493;-68
2023/03/15 12:52:25;;;;;;;3.20;2.20;;;8.70;99.20;;;;;;5029779;28;20108;-67
2023/03/15 12:55:03;;;;;;;9.27;2.20;;;8.90;99.40;;;;;;5024750;28;20047;-66
2023/03/15 12:57:35;;;;;;;4.45;1.98;;;9.10;99.60;;;;;;5035588;28;20017;-66
2023/03/15 13:00:11;;;;;;;5.35;1.88;;;9.20;99.20;;;;;;5032379;28;20025;-67
2023/03/15 13:02:44;;;;;;;5.15;1.70;;;9.50;97.40;;;;;;5030710;28;20865;-67